createdAt,value
2023-04-26T00:07:37.801Z,17.9
2023-04-26T00:17:46.743Z,18.1
2023-04-26T00:27:55.474Z,18.7
2023-04-26T00:38:04.892Z,18.6
2023-04-26T00:48:13.918Z,18.4
2023-04-26T00:58:23.440Z,18.4
2023-04-26T01:08:24.306Z,18.4
2023-04-26T01:18:33.257Z,18.5
2023-04-26T01:28:42.476Z,18.5
2023-04-26T01:38:51.635Z,18.5
2023-04-26T01:49:00.434Z,18.3
2023-04-26T01:59:09.423Z,18.4
2023-04-26T02:09:09.795Z,18
2023-04-26T02:19:19.037Z,17.7
2023-04-26T02:29:42.764Z,17.5
2023-04-26T02:39:35.317Z,17.3
2023-04-26T02:49:44.303Z,17.2
2023-04-26T02:59:47.030Z,17.3
2023-04-26T03:09:46.911Z,17.2
2023-04-26T03:19:55.740Z,17.4
2023-04-26T03:30:04.260Z,17.6
2023-04-26T03:40:13.380Z,17.4
2023-04-26T03:50:23.758Z,17.2
2023-04-26T04:00:32.022Z,17.1
2023-04-26T04:10:41.073Z,16.9
2023-04-26T04:20:50.503Z,17.3
2023-04-26T04:30:51.171Z,17.8
2023-04-26T04:40:51.970Z,17.8
2023-04-26T04:51:01.371Z,17.3
2023-04-26T05:01:05.316Z,17.1
2023-04-26T05:11:07.008Z,16.9
2023-04-26T05:21:18.564Z,16.9
2023-04-26T05:31:20.032Z,16.8
2023-04-26T05:41:28.699Z,16.9
2023-04-26T05:51:37.726Z,17.3
2023-04-26T06:01:37.792Z,17.3
2023-04-26T06:11:47.380Z,17.6
2023-04-26T06:21:56.354Z,17.7
2023-04-26T06:31:56.804Z,17.9
2023-04-26T06:42:06.000Z,18.2
2023-04-26T06:52:15.346Z,18.4
2023-04-26T07:02:24.777Z,18.7
2023-04-26T07:12:25.583Z,19.8
2023-04-26T07:22:38.722Z,21.7
2023-04-26T07:32:37.485Z,23.4
2023-04-26T07:42:46.959Z,24.5
2023-04-26T07:52:48.927Z,25.2
2023-04-26T08:02:58.540Z,26.3
2023-04-26T08:12:59.316Z,26.6
2023-04-26T08:33:08.832Z,27.5
2023-04-26T08:44:19.502Z,26.1
2023-04-26T08:53:33.001Z,24.7
2023-04-26T09:03:25.496Z,24
2023-04-26T09:13:29.435Z,23
2023-04-26T09:23:33.512Z,23.1
2023-04-26T09:33:39.854Z,22.7
2023-04-26T09:43:42.178Z,22.5
2023-04-26T09:53:52.698Z,22.9
2023-04-26T10:03:58.827Z,22.5
2023-04-26T10:14:01.682Z,22.6
2023-04-26T10:24:06.494Z,22.6
2023-04-26T10:34:06.540Z,22.1
2023-04-26T10:44:06.575Z,22.4
2023-04-26T10:54:08.186Z,22.7
2023-04-26T11:04:17.534Z,22.6
2023-04-26T11:14:12.316Z,22.9
2023-04-26T11:24:12.751Z,22.8
2023-04-26T11:34:15.383Z,22.9
2023-04-26T11:44:24.337Z,22.5
2023-04-26T11:54:33.394Z,22.4
2023-04-26T12:04:43.458Z,22.5
2023-04-26T12:14:42.999Z,22.3
2023-04-26T12:24:53.298Z,22.6
2023-04-26T12:34:53.514Z,21.8
2023-04-26T12:45:02.600Z,21.9
2023-04-26T12:55:07.803Z,21.4
2023-04-26T13:05:10.746Z,21.4
2023-04-26T13:15:20.418Z,21.5
2023-04-26T13:25:29.367Z,21.4
2023-04-26T13:35:31.044Z,21.8
2023-04-26T13:45:37.445Z,22.4
2023-04-26T13:55:44.093Z,22.8
2023-04-26T14:05:48.271Z,22.5
2023-04-26T14:15:58.010Z,23
2023-04-26T14:26:06.982Z,22.2
2023-04-26T14:36:16.159Z,22.2
2023-04-26T14:46:25.212Z,22.1
2023-04-26T14:56:29.972Z,22.1
2023-04-26T15:06:32.757Z,22.2
2023-04-26T15:16:42.268Z,21.6
2023-04-26T15:26:42.989Z,21.6
2023-04-26T15:36:43.121Z,21.9
2023-04-26T15:46:52.707Z,21.8
2023-04-26T15:56:56.712Z,21.7
2023-04-26T16:06:56.084Z,21.6
2023-04-26T16:17:06.100Z,21.2
2023-04-26T16:27:14.749Z,21.3
2023-04-26T16:37:18.947Z,21.5
2023-04-26T16:47:21.139Z,21.5
2023-04-26T16:57:21.505Z,21.2
2023-04-26T17:07:22.072Z,20.7
2023-04-26T17:17:31.929Z,20.8
2023-04-26T17:27:40.968Z,20.6
2023-04-26T17:37:50.196Z,20.8
2023-04-26T17:47:51.601Z,20.6
2023-04-26T17:58:01.265Z,20.7
2023-04-26T18:08:10.256Z,20.7
2023-04-26T18:18:19.102Z,20.7
2023-04-26T18:28:29.741Z,20.7
2023-04-26T18:38:28.623Z,20.2
2023-04-26T18:48:38.522Z,20.2
2023-04-26T18:58:44.401Z,20.2
2023-04-26T19:08:50.668Z,20.2
2023-04-26T19:18:51.690Z,19.9
2023-04-26T19:28:53.295Z,19.8
2023-04-26T19:39:07.470Z,20.1
2023-04-26T19:49:08.389Z,20.3
2023-04-26T19:59:09.054Z,20.2
2023-04-26T20:09:12.592Z,20.4
2023-04-26T20:19:18.378Z,20.7
2023-04-26T20:29:19.510Z,20.6
2023-04-26T20:39:29.060Z,20.6
2023-04-26T20:49:38.173Z,20.8
2023-04-26T20:59:39.209Z,20.6
2023-04-26T21:09:39.402Z,20.3
2023-04-26T21:19:48.272Z,20
2023-04-26T21:29:58.210Z,19.9
2023-04-26T21:40:07.581Z,19.8
2023-04-26T21:50:09.912Z,19.9
2023-04-26T22:00:19.010Z,19.6
2023-04-26T22:10:21.097Z,19.4
2023-04-26T22:20:21.256Z,19.2
2023-04-26T22:30:29.977Z,19.1
2023-04-26T22:40:39.024Z,19
2023-04-26T22:50:48.532Z,18.9
2023-04-26T23:00:58.072Z,18.9
2023-04-26T23:11:07.323Z,18.8
2023-04-26T23:21:07.848Z,18.7
2023-04-26T23:31:16.973Z,18.6
2023-04-26T23:41:25.816Z,18.5
2023-04-26T23:51:34.895Z,18.4
